sensor_id;sensor_type;location;lat;lon;timestamp;P1;durP1;ratioP1;P2;durP2;ratioP2
8088;SDS011;57635;49.194;12.104;2022-08-21T00:01:13;17.13;;;15.53;;
8088;SDS011;57635;49.194;12.104;2022-08-21T00:03:44;15.90;;;14.67;;
8088;SDS011;57635;49.194;12.104;2022-08-21T00:06:14;16.17;;;14.57;;
8088;SDS011;57635;49.194;12.104;2022-08-21T00:08:42;15.30;;;14.20;;
8088;SDS011;57635;49.194;12.104;2022-08-21T00:11:10;14.43;;;13.43;;
8088;SDS011;57635;49.194;12.104;2022-08-21T00:13:39;15.03;;;13.73;;
8088;SDS011;57635;49.194;12.104;2022-08-21T00:16:31;13.50;;;12.30;;
8088;SDS011;57635;49.194;12.104;2022-08-21T00:19:00;16.10;;;14.70;;
8088;SDS011;57635;49.194;12.104;2022-08-21T00:21:29;16.20;;;14.80;;
8088;SDS011;57635;49.194;12.104;2022-08-21T00:23:57;14.40;;;13.20;;
8088;SDS011;57635;49.194;12.104;2022-08-21T00:26:26;14.93;;;13.73;;
8088;SDS011;57635;49.194;12.104;2022-08-21T00:28:54;14.53;;;13.33;;
8088;SDS011;57635;49.194;12.104;2022-08-21T00:31:24;15.67;;;14.27;;
8088;SDS011;57635;49.194;12.104;2022-08-21T00:33:52;15.83;;;14.43;;
8088;SDS011;57635;49.194;12.104;2022-08-21T00:36:26;16.63;;;15.07;;
8088;SDS011;57635;49.194;12.104;2022-08-21T00:38:56;15.20;;;13.97;;
8088;SDS011;57635;49.194;12.104;2022-08-21T00:41:24;15.23;;;14.00;;
8088;SDS011;57635;49.194;12.104;2022-08-21T00:44:04;16.27;;;14.87;;
8088;SDS011;57635;49.194;12.104;2022-08-21T00:46:32;14.40;;;13.30;;
8088;SDS011;57635;49.194;12.104;2022-08-21T00:49:01;15.67;;;14.37;;
8088;SDS011;57635;49.194;12.104;2022-08-21T00:51:32;14.47;;;13.37;;
8088;SDS011;57635;49.194;12.104;2022-08-21T00:54:06;16.03;;;14.73;;
8088;SDS011;57635;49.194;12.104;2022-08-21T00:56:43;14.47;;;13.37;;
8088;SDS011;57635;49.194;12.104;2022-08-21T00:59:13;14.07;;;12.87;;
8088;SDS011;57635;49.194;12.104;2022-08-21T01:01:41;15.77;;;14.57;;
8088;SDS011;57635;49.194;12.104;2022-08-21T01:04:09;14.30;;;13.10;;
8088;SDS011;57635;49.194;12.104;2022-08-21T01:06:37;15.37;;;14.20;;
8088;SDS011;57635;49.194;12.104;2022-08-21T01:09:07;14.80;;;13.60;;
8088;SDS011;57635;49.194;12.104;2022-08-21T01:11:35;14.70;;;13.50;;
8088;SDS011;57635;49.194;12.104;2022-08-21T01:14:04;15.70;;;14.40;;
8088;SDS011;57635;49.194;12.104;2022-08-21T01:16:32;16.03;;;14.63;;
8088;SDS011;57635;49.194;12.104;2022-08-21T01:19:00;16.17;;;14.87;;
8088;SDS011;57635;49.194;12.104;2022-08-21T01:21:29;15.77;;;14.47;;
8088;SDS011;57635;49.194;12.104;2022-08-21T01:23:58;16.43;;;15.13;;
8088;SDS011;57635;49.194;12.104;2022-08-21T01:26:27;16.60;;;15.30;;
8088;SDS011;57635;49.194;12.104;2022-08-21T01:29:00;15.17;;;14.00;;
8088;SDS011;57635;49.194;12.104;2022-08-21T01:31:31;13.30;;;12.30;;
8088;SDS011;57635;49.194;12.104;2022-08-21T01:34:00;13.67;;;12.67;;
8088;SDS011;57635;49.194;12.104;2022-08-21T01:36:30;14.03;;;13.03;;
8088;SDS011;57635;49.194;12.104;2022-08-21T01:38:59;13.17;;;12.20;;
8088;SDS011;57635;49.194;12.104;2022-08-21T01:41:27;14.00;;;13.00;;
8088;SDS011;57635;49.194;12.104;2022-08-21T01:43:55;13.20;;;12.20;;
8088;SDS011;57635;49.194;12.104;2022-08-21T01:46:23;11.27;;;10.53;;
8088;SDS011;57635;49.194;12.104;2022-08-21T01:48:51;12.40;;;11.53;;
8088;SDS011;57635;49.194;12.104;2022-08-21T01:51:19;11.30;;;10.50;;
8088;SDS011;57635;49.194;12.104;2022-08-21T01:53:49;11.10;;;10.40;;
8088;SDS011;57635;49.194;12.104;2022-08-21T01:56:17;11.53;;;10.73;;
8088;SDS011;57635;49.194;12.104;2022-08-21T01:58:46;11.50;;;10.70;;
8088;SDS011;57635;49.194;12.104;2022-08-21T02:01:15;10.93;;;10.23;;
8088;SDS011;57635;49.194;12.104;2022-08-21T02:03:43;10.70;;;10.00;;
8088;SDS011;57635;49.194;12.104;2022-08-21T02:06:12;11.43;;;10.30;;
8088;SDS011;57635;49.194;12.104;2022-08-21T02:08:44;10.23;;;9.63;;
8088;SDS011;57635;49.194;12.104;2022-08-21T02:11:14;11.03;;;10.27;;
8088;SDS011;57635;49.194;12.104;2022-08-21T02:13:42;11.73;;;10.93;;
8088;SDS011;57635;49.194;12.104;2022-08-21T02:16:10;11.43;;;10.50;;
8088;SDS011;57635;49.194;12.104;2022-08-21T02:18:44;11.03;;;10.20;;
8088;SDS011;57635;49.194;12.104;2022-08-21T02:21:13;11.37;;;10.57;;
8088;SDS011;57635;49.194;12.104;2022-08-21T02:23:41;12.23;;;11.47;;
8088;SDS011;57635;49.194;12.104;2022-08-21T02:26:10;11.07;;;10.37;;
8088;SDS011;57635;49.194;12.104;2022-08-21T02:28:39;11.03;;;10.33;;
8088;SDS011;57635;49.194;12.104;2022-08-21T02:31:08;11.97;;;10.73;;
8088;SDS011;57635;49.194;12.104;2022-08-21T02:33:36;10.00;;;9.40;;
8088;SDS011;57635;49.194;12.104;2022-08-21T02:36:06;11.30;;;10.60;;
8088;SDS011;57635;49.194;12.104;2022-08-21T02:38:35;11.97;;;10.87;;
8088;SDS011;57635;49.194;12.104;2022-08-21T02:41:06;11.30;;;10.60;;
8088;SDS011;57635;49.194;12.104;2022-08-21T02:43:35;10.83;;;10.13;;
8088;SDS011;57635;49.194;12.104;2022-08-21T02:46:05;12.03;;;11.03;;
8088;SDS011;57635;49.194;12.104;2022-08-21T02:48:34;10.63;;;9.93;;
8088;SDS011;57635;49.194;12.104;2022-08-21T02:51:04;11.53;;;10.67;;
8088;SDS011;57635;49.194;12.104;2022-08-21T02:53:34;12.47;;;11.67;;
8088;SDS011;57635;49.194;12.104;2022-08-21T02:56:03;11.83;;;11.03;;
8088;SDS011;57635;49.194;12.104;2022-08-21T02:58:34;11.20;;;10.20;;
8088;SDS011;57635;49.194;12.104;2022-08-21T03:01:06;13.33;;;12.30;;
8088;SDS011;57635;49.194;12.104;2022-08-21T03:03:36;11.67;;;10.87;;
8088;SDS011;57635;49.194;12.104;2022-08-21T03:06:05;11.13;;;10.43;;
8088;SDS011;57635;49.194;12.104;2022-08-21T03:08:34;11.43;;;10.70;;
8088;SDS011;57635;49.194;12.104;2022-08-21T03:11:03;10.87;;;10.17;;
8088;SDS011;57635;49.194;12.104;2022-08-21T03:13:33;11.60;;;10.87;;
8088;SDS011;57635;49.194;12.104;2022-08-21T03:16:01;11.23;;;10.43;;
8088;SDS011;57635;49.194;12.104;2022-08-21T03:18:36;10.47;;;9.77;;
8088;SDS011;57635;49.194;12.104;2022-08-21T03:21:05;10.40;;;9.60;;
8088;SDS011;57635;49.194;12.104;2022-08-21T03:23:33;10.33;;;9.63;;
8088;SDS011;57635;49.194;12.104;2022-08-21T03:26:02;10.27;;;9.57;;
8088;SDS011;57635;49.194;12.104;2022-08-21T03:28:33;11.93;;;11.13;;
8088;SDS011;57635;49.194;12.104;2022-08-21T03:31:01;12.43;;;11.13;;
8088;SDS011;57635;49.194;12.104;2022-08-21T03:33:29;11.43;;;10.53;;
8088;SDS011;57635;49.194;12.104;2022-08-21T03:36:01;11.93;;;11.03;;
8088;SDS011;57635;49.194;12.104;2022-08-21T03:38:32;10.43;;;9.73;;
8088;SDS011;57635;49.194;12.104;2022-08-21T03:41:02;10.87;;;9.97;;
8088;SDS011;57635;49.194;12.104;2022-08-21T03:43:31;10.43;;;9.70;;
8088;SDS011;57635;49.194;12.104;2022-08-21T03:46:00;10.53;;;9.80;;
8088;SDS011;57635;49.194;12.104;2022-08-21T03:48:28;11.53;;;10.63;;
8088;SDS011;57635;49.194;12.104;2022-08-21T03:50:57;10.70;;;10.00;;
8088;SDS011;57635;49.194;12.104;2022-08-21T03:53:26;10.80;;;10.00;;
8088;SDS011;57635;49.194;12.104;2022-08-21T03:55:54;9.87;;;9.20;;
8088;SDS011;57635;49.194;12.104;2022-08-21T03:58:24;10.77;;;9.83;;
8088;SDS011;57635;49.194;12.104;2022-08-21T04:00:56;9.37;;;8.57;;
8088;SDS011;57635;49.194;12.104;2022-08-21T04:03:25;8.80;;;8.20;;
8088;SDS011;57635;49.194;12.104;2022-08-21T04:05:54;9.33;;;8.73;;
8088;SDS011;57635;49.194;12.104;2022-08-21T04:08:22;9.33;;;8.63;;
8088;SDS011;57635;49.194;12.104;2022-08-21T04:10:52;9.20;;;8.60;;
8088;SDS011;57635;49.194;12.104;2022-08-21T04:13:22;9.43;;;8.73;;
8088;SDS011;57635;49.194;12.104;2022-08-21T04:15:50;9.47;;;8.80;;
8088;SDS011;57635;49.194;12.104;2022-08-21T04:18:18;8.70;;;8.00;;
8088;SDS011;57635;49.194;12.104;2022-08-21T04:20:47;8.13;;;7.63;;
8088;SDS011;57635;49.194;12.104;2022-08-21T04:23:17;8.83;;;8.13;;
8088;SDS011;57635;49.194;12.104;2022-08-21T04:25:50;8.30;;;7.43;;
8088;SDS011;57635;49.194;12.104;2022-08-21T04:28:20;8.07;;;7.47;;
8088;SDS011;57635;49.194;12.104;2022-08-21T04:30:52;8.50;;;7.90;;
8088;SDS011;57635;49.194;12.104;2022-08-21T04:33:21;9.07;;;8.37;;
8088;SDS011;57635;49.194;12.104;2022-08-21T04:35:49;10.53;;;9.73;;
8088;SDS011;57635;49.194;12.104;2022-08-21T04:38:17;9.63;;;8.93;;
8088;SDS011;57635;49.194;12.104;2022-08-21T04:40:46;10.93;;;10.03;;
8088;SDS011;57635;49.194;12.104;2022-08-21T04:43:17;12.07;;;11.07;;
8088;SDS011;57635;49.194;12.104;2022-08-21T04:45:46;12.13;;;11.10;;
8088;SDS011;57635;49.194;12.104;2022-08-21T04:48:16;12.73;;;11.73;;
8088;SDS011;57635;49.194;12.104;2022-08-21T04:50:47;13.50;;;12.43;;
8088;SDS011;57635;49.194;12.104;2022-08-21T04:53:18;13.40;;;12.30;;
8088;SDS011;57635;49.194;12.104;2022-08-21T04:55:50;13.10;;;11.93;;
8088;SDS011;57635;49.194;12.104;2022-08-21T04:58:21;13.33;;;12.23;;
8088;SDS011;57635;49.194;12.104;2022-08-21T05:00:51;12.53;;;11.53;;
8088;SDS011;57635;49.194;12.104;2022-08-21T05:03:20;11.70;;;10.80;;
8088;SDS011;57635;49.194;12.104;2022-08-21T05:05:49;12.17;;;11.27;;
8088;SDS011;57635;49.194;12.104;2022-08-21T05:08:18;10.70;;;9.90;;
8088;SDS011;57635;49.194;12.104;2022-08-21T05:10:47;11.23;;;10.27;;
8088;SDS011;57635;49.194;12.104;2022-08-21T05:13:15;10.87;;;9.97;;
8088;SDS011;57635;49.194;12.104;2022-08-21T05:15:45;11.50;;;10.50;;
8088;SDS011;57635;49.194;12.104;2022-08-21T05:18:14;10.43;;;9.53;;
8088;SDS011;57635;49.194;12.104;2022-08-21T05:20:42;10.93;;;10.13;;
8088;SDS011;57635;49.194;12.104;2022-08-21T05:23:13;11.87;;;10.87;;
8088;SDS011;57635;49.194;12.104;2022-08-21T05:25:41;11.00;;;10.10;;
8088;SDS011;57635;49.194;12.104;2022-08-21T05:28:11;11.90;;;10.70;;
8088;SDS011;57635;49.194;12.104;2022-08-21T05:30:39;12.30;;;11.13;;
8088;SDS011;57635;49.194;12.104;2022-08-21T05:33:09;11.23;;;10.33;;
8088;SDS011;57635;49.194;12.104;2022-08-21T05:35:38;11.30;;;10.40;;
8088;SDS011;57635;49.194;12.104;2022-08-21T05:38:06;11.00;;;10.10;;
8088;SDS011;57635;49.194;12.104;2022-08-21T05:40:43;12.63;;;11.63;;
8088;SDS011;57635;49.194;12.104;2022-08-21T05:43:12;12.20;;;11.20;;
8088;SDS011;57635;49.194;12.104;2022-08-21T05:45:44;12.50;;;11.30;;
8088;SDS011;57635;49.194;12.104;2022-08-21T05:48:15;12.10;;;11.20;;
8088;SDS011;57635;49.194;12.104;2022-08-21T05:50:50;10.73;;;9.93;;
8088;SDS011;57635;49.194;12.104;2022-08-21T05:53:20;13.00;;;11.73;;
8088;SDS011;57635;49.194;12.104;2022-08-21T05:55:49;11.90;;;11.00;;
8088;SDS011;57635;49.194;12.104;2022-08-21T05:58:20;11.97;;;10.97;;
8088;SDS011;57635;49.194;12.104;2022-08-21T06:00:52;11.60;;;10.70;;
8088;SDS011;57635;49.194;12.104;2022-08-21T06:03:23;12.37;;;11.47;;
8088;SDS011;57635;49.194;12.104;2022-08-21T06:05:52;12.13;;;11.10;;
8088;SDS011;57635;49.194;12.104;2022-08-21T06:08:22;12.37;;;11.37;;
8088;SDS011;57635;49.194;12.104;2022-08-21T06:10:51;12.77;;;11.67;;
8088;SDS011;57635;49.194;12.104;2022-08-21T06:13:20;12.27;;;11.27;;
8088;SDS011;57635;49.194;12.104;2022-08-21T06:15:49;11.53;;;10.53;;
8088;SDS011;57635;49.194;12.104;2022-08-21T06:18:17;11.70;;;10.80;;
8088;SDS011;57635;49.194;12.104;2022-08-21T06:20:47;11.53;;;10.63;;
8088;SDS011;57635;49.194;12.104;2022-08-21T06:23:15;11.20;;;10.20;;
8088;SDS011;57635;49.194;12.104;2022-08-21T06:25:43;12.30;;;11.20;;
8088;SDS011;57635;49.194;12.104;2022-08-21T06:28:12;12.73;;;11.73;;
8088;SDS011;57635;49.194;12.104;2022-08-21T06:30:40;11.77;;;10.87;;
8088;SDS011;57635;49.194;12.104;2022-08-21T06:33:09;12.00;;;10.93;;
8088;SDS011;57635;49.194;12.104;2022-08-21T06:35:37;12.60;;;11.60;;
8088;SDS011;57635;49.194;12.104;2022-08-21T06:38:08;11.20;;;10.30;;
8088;SDS011;57635;49.194;12.104;2022-08-21T06:40:36;11.43;;;10.53;;
8088;SDS011;57635;49.194;12.104;2022-08-21T06:43:13;12.07;;;11.07;;
8088;SDS011;57635;49.194;12.104;2022-08-21T06:45:43;11.73;;;10.83;;
8088;SDS011;57635;49.194;12.104;2022-08-21T06:48:11;12.87;;;11.77;;
8088;SDS011;57635;49.194;12.104;2022-08-21T06:50:44;12.10;;;11.03;;
8088;SDS011;57635;49.194;12.104;2022-08-21T06:53:16;12.70;;;11.70;;
8088;SDS011;57635;49.194;12.104;2022-08-21T06:55:46;12.57;;;11.50;;
8088;SDS011;57635;49.194;12.104;2022-08-21T06:58:15;13.57;;;12.40;;
8088;SDS011;57635;49.194;12.104;2022-08-21T07:00:44;12.90;;;11.63;;
8088;SDS011;57635;49.194;12.104;2022-08-21T07:03:17;12.70;;;11.63;;
8088;SDS011;57635;49.194;12.104;2022-08-21T07:05:49;13.27;;;12.17;;
8088;SDS011;57635;49.194;12.104;2022-08-21T07:08:19;12.17;;;11.17;;
8088;SDS011;57635;49.194;12.104;2022-08-21T07:10:47;13.10;;;12.10;;
8088;SDS011;57635;49.194;12.104;2022-08-21T07:13:16;12.37;;;11.43;;
8088;SDS011;57635;49.194;12.104;2022-08-21T07:15:44;12.93;;;11.93;;
8088;SDS011;57635;49.194;12.104;2022-08-21T07:18:12;13.33;;;12.27;;
8088;SDS011;57635;49.194;12.104;2022-08-21T07:20:41;14.67;;;13.37;;
8088;SDS011;57635;49.194;12.104;2022-08-21T07:23:10;13.40;;;12.27;;
8088;SDS011;57635;49.194;12.104;2022-08-21T07:25:42;13.73;;;12.63;;
8088;SDS011;57635;49.194;12.104;2022-08-21T07:28:10;14.37;;;13.17;;
8088;SDS011;57635;49.194;12.104;2022-08-21T07:30:38;13.37;;;12.37;;
8088;SDS011;57635;49.194;12.104;2022-08-21T07:33:06;14.40;;;13.20;;
8088;SDS011;57635;49.194;12.104;2022-08-21T07:35:35;15.87;;;14.60;;
8088;SDS011;57635;49.194;12.104;2022-08-21T07:38:03;15.73;;;14.27;;
8088;SDS011;57635;49.194;12.104;2022-08-21T07:40:31;13.87;;;12.73;;
8088;SDS011;57635;49.194;12.104;2022-08-21T07:43:01;14.97;;;13.67;;
8088;SDS011;57635;49.194;12.104;2022-08-21T07:45:29;14.90;;;13.60;;
8088;SDS011;57635;49.194;12.104;2022-08-21T07:47:57;15.17;;;13.87;;
8088;SDS011;57635;49.194;12.104;2022-08-21T07:50:26;14.30;;;13.10;;
8088;SDS011;57635;49.194;12.104;2022-08-21T07:52:54;17.23;;;15.73;;
8088;SDS011;57635;49.194;12.104;2022-08-21T07:55:22;16.50;;;14.90;;
8088;SDS011;57635;49.194;12.104;2022-08-21T07:57:50;16.87;;;15.43;;
8088;SDS011;57635;49.194;12.104;2022-08-21T08:00:22;16.67;;;15.27;;
8088;SDS011;57635;49.194;12.104;2022-08-21T08:02:52;16.73;;;15.33;;
8088;SDS011;57635;49.194;12.104;2022-08-21T08:05:22;16.27;;;14.87;;
8088;SDS011;57635;49.194;12.104;2022-08-21T08:07:52;16.70;;;15.20;;
8088;SDS011;57635;49.194;12.104;2022-08-21T08:10:21;17.40;;;15.87;;
8088;SDS011;57635;49.194;12.104;2022-08-21T08:12:54;16.57;;;15.10;;
8088;SDS011;57635;49.194;12.104;2022-08-21T08:15:24;16.13;;;14.73;;
8088;SDS011;57635;49.194;12.104;2022-08-21T08:17:53;17.93;;;16.33;;
8088;SDS011;57635;49.194;12.104;2022-08-21T08:20:22;17.70;;;16.17;;
8088;SDS011;57635;49.194;12.104;2022-08-21T08:22:51;17.70;;;15.93;;
8088;SDS011;57635;49.194;12.104;2022-08-21T08:25:20;18.47;;;16.70;;
8088;SDS011;57635;49.194;12.104;2022-08-21T08:28:03;18.00;;;16.40;;
8088;SDS011;57635;49.194;12.104;2022-08-21T08:30:44;17.20;;;15.70;;
8088;SDS011;57635;49.194;12.104;2022-08-21T08:33:13;18.40;;;16.70;;
8088;SDS011;57635;49.194;12.104;2022-08-21T08:35:43;18.17;;;16.47;;
8088;SDS011;57635;49.194;12.104;2022-08-21T08:38:14;18.47;;;16.77;;
8088;SDS011;57635;49.194;12.104;2022-08-21T08:40:50;18.20;;;16.50;;
8088;SDS011;57635;49.194;12.104;2022-08-21T08:43:33;18.80;;;17.00;;
8088;SDS011;57635;49.194;12.104;2022-08-21T08:46:04;18.40;;;16.73;;
8088;SDS011;57635;49.194;12.104;2022-08-21T08:48:40;20.97;;;18.97;;
8088;SDS011;57635;49.194;12.104;2022-08-21T08:51:19;18.43;;;16.80;;
8088;SDS011;57635;49.194;12.104;2022-08-21T08:53:51;17.87;;;16.27;;
8088;SDS011;57635;49.194;12.104;2022-08-21T08:56:21;19.33;;;17.50;;
8088;SDS011;57635;49.194;12.104;2022-08-21T08:58:55;17.53;;;15.97;;
8088;SDS011;57635;49.194;12.104;2022-08-21T09:01:29;20.30;;;18.20;;
8088;SDS011;57635;49.194;12.104;2022-08-21T09:04:03;18.93;;;17.30;;
8088;SDS011;57635;49.194;12.104;2022-08-21T09:06:36;20.00;;;18.17;;
8088;SDS011;57635;49.194;12.104;2022-08-21T09:09:19;20.43;;;18.43;;
8088;SDS011;57635;49.194;12.104;2022-08-21T09:11:56;20.77;;;18.77;;
8088;SDS011;57635;49.194;12.104;2022-08-21T09:14:30;19.93;;;18.03;;
8088;SDS011;57635;49.194;12.104;2022-08-21T09:17:12;20.17;;;18.43;;
8088;SDS011;57635;49.194;12.104;2022-08-21T09:19:49;20.57;;;18.57;;
8088;SDS011;57635;49.194;12.104;2022-08-21T09:22:28;21.00;;;18.97;;
8088;SDS011;57635;49.194;12.104;2022-08-21T09:25:07;21.17;;;19.27;;
8088;SDS011;57635;49.194;12.104;2022-08-21T09:27:38;20.90;;;18.87;;
8088;SDS011;57635;49.194;12.104;2022-08-21T09:30:08;19.43;;;17.40;;
8088;SDS011;57635;49.194;12.104;2022-08-21T09:32:41;19.33;;;17.53;;
8088;SDS011;57635;49.194;12.104;2022-08-21T09:35:11;21.67;;;19.67;;
8088;SDS011;57635;49.194;12.104;2022-08-21T09:37:46;21.13;;;19.20;;
8088;SDS011;57635;49.194;12.104;2022-08-21T09:40:26;20.70;;;18.80;;
8088;SDS011;57635;49.194;12.104;2022-08-21T09:42:58;22.60;;;20.57;;
8088;SDS011;57635;49.194;12.104;2022-08-21T09:45:28;22.53;;;20.33;;
8088;SDS011;57635;49.194;12.104;2022-08-21T09:48:11;22.20;;;20.17;;
8088;SDS011;57635;49.194;12.104;2022-08-21T09:50:40;22.10;;;20.10;;
8088;SDS011;57635;49.194;12.104;2022-08-21T09:53:15;21.30;;;19.30;;
8088;SDS011;57635;49.194;12.104;2022-08-21T09:55:48;22.00;;;20.00;;
8088;SDS011;57635;49.194;12.104;2022-08-21T09:58:38;23.20;;;21.00;;
8088;SDS011;57635;49.194;12.104;2022-08-21T10:01:12;20.67;;;18.87;;
8088;SDS011;57635;49.194;12.104;2022-08-21T10:03:47;21.50;;;19.50;;
8088;SDS011;57635;49.194;12.104;2022-08-21T10:06:29;21.00;;;19.03;;
8088;SDS011;57635;49.194;12.104;2022-08-21T10:09:03;19.73;;;18.03;;
8088;SDS011;57635;49.194;12.104;2022-08-21T10:11:33;20.03;;;18.33;;
8088;SDS011;57635;49.194;12.104;2022-08-21T10:14:05;20.30;;;18.40;;
8088;SDS011;57635;49.194;12.104;2022-08-21T10:16:42;19.87;;;18.13;;
8088;SDS011;57635;49.194;12.104;2022-08-21T10:19:21;20.43;;;18.57;;
8088;SDS011;57635;49.194;12.104;2022-08-21T10:22:04;21.20;;;19.20;;
8088;SDS011;57635;49.194;12.104;2022-08-21T10:24:38;22.23;;;20.13;;
8088;SDS011;57635;49.194;12.104;2022-08-21T10:27:14;22.00;;;20.03;;
8088;SDS011;57635;49.194;12.104;2022-08-21T10:29:46;23.13;;;20.93;;
8088;SDS011;57635;49.194;12.104;2022-08-21T10:32:34;25.00;;;22.70;;
8088;SDS011;57635;49.194;12.104;2022-08-21T10:35:13;23.07;;;20.93;;
8088;SDS011;57635;49.194;12.104;2022-08-21T10:37:46;24.07;;;21.07;;
8088;SDS011;57635;49.194;12.104;2022-08-21T10:40:22;22.73;;;20.63;;
8088;SDS011;57635;49.194;12.104;2022-08-21T10:42:57;21.77;;;19.77;;
8088;SDS011;57635;49.194;12.104;2022-08-21T10:45:33;25.37;;;22.73;;
8088;SDS011;57635;49.194;12.104;2022-08-21T10:48:07;22.90;;;20.60;;
8088;SDS011;57635;49.194;12.104;2022-08-21T10:50:38;24.73;;;22.33;;
8088;SDS011;57635;49.194;12.104;2022-08-21T10:53:13;24.40;;;22.10;;
8088;SDS011;57635;49.194;12.104;2022-08-21T10:55:56;23.50;;;21.30;;
8088;SDS011;57635;49.194;12.104;2022-08-21T10:58:28;23.10;;;20.80;;
8088;SDS011;57635;49.194;12.104;2022-08-21T11:00:58;23.90;;;21.70;;
8088;SDS011;57635;49.194;12.104;2022-08-21T11:03:33;23.87;;;21.57;;
8088;SDS011;57635;49.194;12.104;2022-08-21T11:06:05;21.83;;;19.83;;
8088;SDS011;57635;49.194;12.104;2022-08-21T11:08:37;24.40;;;22.10;;
8088;SDS011;57635;49.194;12.104;2022-08-21T11:11:10;24.33;;;22.03;;
8088;SDS011;57635;49.194;12.104;2022-08-21T11:13:45;21.63;;;19.43;;
8088;SDS011;57635;49.194;12.104;2022-08-21T11:16:16;21.63;;;19.77;;
8088;SDS011;57635;49.194;12.104;2022-08-21T11:18:49;21.07;;;19.23;;
8088;SDS011;57635;49.194;12.104;2022-08-21T11:21:27;20.73;;;18.93;;
8088;SDS011;57635;49.194;12.104;2022-08-21T11:24:02;21.67;;;19.67;;
8088;SDS011;57635;49.194;12.104;2022-08-21T11:26:34;21.40;;;19.40;;
8088;SDS011;57635;49.194;12.104;2022-08-21T11:29:07;20.27;;;18.47;;
8088;SDS011;57635;49.194;12.104;2022-08-21T11:31:43;20.33;;;18.50;;
8088;SDS011;57635;49.194;12.104;2022-08-21T11:34:24;18.73;;;17.20;;
8088;SDS011;57635;49.194;12.104;2022-08-21T11:37:01;19.57;;;17.87;;
8088;SDS011;57635;49.194;12.104;2022-08-21T11:39:36;17.63;;;16.03;;
8088;SDS011;57635;49.194;12.104;2022-08-21T11:42:12;19.40;;;17.13;;
8088;SDS011;57635;49.194;12.104;2022-08-21T11:44:48;17.63;;;16.07;;
8088;SDS011;57635;49.194;12.104;2022-08-21T11:47:37;19.33;;;17.43;;
8088;SDS011;57635;49.194;12.104;2022-08-21T11:50:20;17.73;;;16.27;;
8088;SDS011;57635;49.194;12.104;2022-08-21T11:53:03;17.27;;;15.80;;
8088;SDS011;57635;49.194;12.104;2022-08-21T11:55:36;18.83;;;17.20;;
8088;SDS011;57635;49.194;12.104;2022-08-21T11:58:07;16.27;;;14.90;;
8088;SDS011;57635;49.194;12.104;2022-08-21T12:00:38;17.47;;;15.97;;
8088;SDS011;57635;49.194;12.104;2022-08-21T12:03:11;16.30;;;14.90;;
8088;SDS011;57635;49.194;12.104;2022-08-21T12:05:44;13.97;;;12.77;;
8088;SDS011;57635;49.194;12.104;2022-08-21T12:08:28;13.47;;;12.30;;
8088;SDS011;57635;49.194;12.104;2022-08-21T12:11:02;13.60;;;12.30;;
8088;SDS011;57635;49.194;12.104;2022-08-21T12:13:36;12.93;;;12.03;;
8088;SDS011;57635;49.194;12.104;2022-08-21T12:16:12;14.43;;;13.33;;
8088;SDS011;57635;49.194;12.104;2022-08-21T12:18:42;13.20;;;12.13;;
8088;SDS011;57635;49.194;12.104;2022-08-21T12:21:19;11.80;;;10.97;;
8088;SDS011;57635;49.194;12.104;2022-08-21T12:24:00;10.67;;;9.90;;
8088;SDS011;57635;49.194;12.104;2022-08-21T12:26:33;9.73;;;9.03;;
8088;SDS011;57635;49.194;12.104;2022-08-21T12:29:07;11.57;;;10.77;;
8088;SDS011;57635;49.194;12.104;2022-08-21T12:31:50;10.30;;;9.50;;
8088;SDS011;57635;49.194;12.104;2022-08-21T12:34:25;8.80;;;8.30;;
8088;SDS011;57635;49.194;12.104;2022-08-21T12:36:58;9.67;;;8.97;;
8088;SDS011;57635;49.194;12.104;2022-08-21T12:39:30;10.90;;;10.00;;
8088;SDS011;57635;49.194;12.104;2022-08-21T12:42:00;9.27;;;8.60;;
8088;SDS011;57635;49.194;12.104;2022-08-21T12:44:34;8.47;;;7.77;;
8088;SDS011;57635;49.194;12.104;2022-08-21T12:47:06;8.50;;;7.90;;
8088;SDS011;57635;49.194;12.104;2022-08-21T12:49:44;7.37;;;6.97;;
8088;SDS011;57635;49.194;12.104;2022-08-21T12:52:19;7.30;;;6.80;;
8088;SDS011;57635;49.194;12.104;2022-08-21T12:54:50;6.63;;;6.20;;
8088;SDS011;57635;49.194;12.104;2022-08-21T12:57:20;6.03;;;5.63;;
8088;SDS011;57635;49.194;12.104;2022-08-21T12:59:52;6.53;;;6.20;;
8088;SDS011;57635;49.194;12.104;2022-08-21T13:02:23;6.37;;;5.97;;
8088;SDS011;57635;49.194;12.104;2022-08-21T13:04:53;5.70;;;5.30;;
8088;SDS011;57635;49.194;12.104;2022-08-21T13:07:25;5.20;;;4.90;;
8088;SDS011;57635;49.194;12.104;2022-08-21T13:09:57;5.20;;;4.90;;
8088;SDS011;57635;49.194;12.104;2022-08-21T13:12:27;6.13;;;5.80;;
8088;SDS011;57635;49.194;12.104;2022-08-21T13:14:58;6.93;;;6.23;;
8088;SDS011;57635;49.194;12.104;2022-08-21T13:17:30;5.67;;;5.23;;
8088;SDS011;57635;49.194;12.104;2022-08-21T13:20:00;4.90;;;4.70;;
8088;SDS011;57635;49.194;12.104;2022-08-21T13:22:29;4.90;;;4.60;;
8088;SDS011;57635;49.194;12.104;2022-08-21T13:25:02;5.50;;;5.20;;
8088;SDS011;57635;49.194;12.104;2022-08-21T13:27:32;4.57;;;4.37;;
8088;SDS011;57635;49.194;12.104;2022-08-21T13:30:05;4.10;;;3.90;;
8088;SDS011;57635;49.194;12.104;2022-08-21T13:32:42;4.57;;;4.37;;
8088;SDS011;57635;49.194;12.104;2022-08-21T13:35:14;4.63;;;4.43;;
8088;SDS011;57635;49.194;12.104;2022-08-21T13:37:44;5.53;;;5.23;;
8088;SDS011;57635;49.194;12.104;2022-08-21T13:40:16;4.57;;;4.27;;
8088;SDS011;57635;49.194;12.104;2022-08-21T13:42:46;5.13;;;4.67;;
8088;SDS011;57635;49.194;12.104;2022-08-21T13:45:17;4.00;;;3.70;;
8088;SDS011;57635;49.194;12.104;2022-08-21T13:47:51;4.13;;;3.90;;
8088;SDS011;57635;49.194;12.104;2022-08-21T13:50:21;4.33;;;4.13;;
8088;SDS011;57635;49.194;12.104;2022-08-21T13:52:57;3.80;;;3.60;;
8088;SDS011;57635;49.194;12.104;2022-08-21T13:55:35;3.63;;;3.33;;
8088;SDS011;57635;49.194;12.104;2022-08-21T13:58:06;3.67;;;3.47;;
8088;SDS011;57635;49.194;12.104;2022-08-21T14:00:35;4.47;;;4.07;;
8088;SDS011;57635;49.194;12.104;2022-08-21T14:03:12;4.43;;;4.23;;
8088;SDS011;57635;49.194;12.104;2022-08-21T14:06:05;4.00;;;3.70;;
8088;SDS011;57635;49.194;12.104;2022-08-21T14:08:38;4.03;;;3.80;;
8088;SDS011;57635;49.194;12.104;2022-08-21T14:11:10;4.47;;;4.23;;
8088;SDS011;57635;49.194;12.104;2022-08-21T14:13:40;4.30;;;4.10;;
8088;SDS011;57635;49.194;12.104;2022-08-21T14:16:14;4.40;;;4.00;;
8088;SDS011;57635;49.194;12.104;2022-08-21T14:18:44;4.00;;;3.80;;
8088;SDS011;57635;49.194;12.104;2022-08-21T14:21:33;4.03;;;3.73;;
8088;SDS011;57635;49.194;12.104;2022-08-21T14:24:04;4.23;;;4.03;;
8088;SDS011;57635;49.194;12.104;2022-08-21T14:26:37;4.00;;;3.80;;
8088;SDS011;57635;49.194;12.104;2022-08-21T14:29:13;3.93;;;3.73;;
8088;SDS011;57635;49.194;12.104;2022-08-21T14:31:42;4.17;;;3.77;;
8088;SDS011;57635;49.194;12.104;2022-08-21T14:34:11;7.07;;;4.10;;
8088;SDS011;57635;49.194;12.104;2022-08-21T14:36:45;4.13;;;3.93;;
8088;SDS011;57635;49.194;12.104;2022-08-21T14:39:14;4.33;;;4.13;;
8088;SDS011;57635;49.194;12.104;2022-08-21T14:41:44;3.83;;;3.63;;
8088;SDS011;57635;49.194;12.104;2022-08-21T14:44:15;3.47;;;3.37;;
8088;SDS011;57635;49.194;12.104;2022-08-21T14:46:43;3.77;;;3.57;;
8088;SDS011;57635;49.194;12.104;2022-08-21T14:49:22;4.00;;;3.70;;
8088;SDS011;57635;49.194;12.104;2022-08-21T14:51:52;3.83;;;3.53;;
8088;SDS011;57635;49.194;12.104;2022-08-21T14:54:24;3.70;;;3.50;;